METAR UND TAF INFORMATION

METAR FOR ESMS
ADDS - METARS form results

(0539 UTC 26 June 2022)
Data provider http://aviationweather.gov/metar/data/
 
METAR text: ESMS 260520Z 12008KT CAVOK 21/16 Q1014
Conditions at: ESMS (MALMO/STURUP , SE) observed 0520 UTC 26 June 2022
Temperature: 21.0°C (70°F)
Dewpoint: 16.0°C (61°F) [RH = 73%]
Pressure (altimeter): 29.94 inches Hg (1014.0 mb)
Winds: from the ESE (120 degrees) at 9 MPH (8 knots; 4.1 m/s)
Visibility: 6 or more miles (10+ km)
Ceiling: ceiling and visibility are OK
Clouds: unknown
Weather: no significant weather observed at this time

METAR text: ESMS 260450Z 10008KT 9999 FEW037 21/16 Q1014
Conditions at: ESMS (MALMO/STURUP , SE) observed 0450 UTC 26 June 2022
Temperature: 21.0°C (70°F)
Dewpoint: 16.0°C (61°F) [RH = 73%]
Pressure (altimeter): 29.94 inches Hg (1014.0 mb)
Winds: from the E (100 degrees) at 9 MPH (8 knots; 4.1 m/s)
Visibility: 6 or more miles (10+ km)
Ceiling: at least 12,000 feet AGL
Clouds: few clouds at 3700 feet AGL
Weather: no significant weather observed at this time

Forecast for: ESMS (MALMO/STURUP , SE)
Text: TAF ESMS 260501Z 2606/2706 14010KT CAVOK
Forecast period: 0600 to 1300 UTC 26 June 2022
Forecast type: FROM: standard forecast or significant change
Winds: from the SE (140 degrees) at 12 MPH (10 knots; 5.1 m/s)
Visibility: 6 or more miles (10+ km)
Ceiling: unknown
Clouds: missing
Weather: NSW  (no significant weather)
Text: BECMG 2613/2616 22005KT
Forecast period: 1300 UTC 26 June 2022 to 0600 UTC 27 June 2022
Forecast type: BECOMING: Conditions expected to become as follows by 1600 UTC 26 June 2022
Winds: from the SW (220 degrees) at 6 MPH (5 knots; 2.6 m/s)
Visibility: 6 or more miles (10+ km)
Ceiling: unknown
Clouds: missing
Weather: NSW  (no significant weather)

 FLUGHAFENKARTE

 RUNWAY INFORMATION
Runway 11 Runway length 2615 ft Runway width 75 ft
Runway elevation 232 ft Runway displaced threshold 0 ft Runway heading 105
Runway 29 Runway length 2615 ft Runway width 75 ft
Runway elevation 228 ft Runway displaced threshold 0 ft Runway heading 285
Runway 17 Runway length 9186 ft Runway width 148 ft
Runway elevation 209 ft Runway displaced threshold 0 ft Runway heading 173
Runway 35 Runway length 9186 ft Runway width 148 ft
Runway elevation 236 ft Runway displaced threshold 0 ft Runway heading 353

 AIRPORT FREQUENCIES
Type APP Name MALMO CON Frequency 135.9 MHZ
Type ATIS Name ATIS Frequency 129.275 MHZ
Type TWR Name TWR Frequency 118.8 MHZ

 AIRPORT NEAR NAVIGATION AIDS
Type NDB Name Sturup Frequency 351 KHZ
Type NDB Name Sturup Frequency 420 KHZ
Type VOR-DME Name Sturup Frequency 113000 KHZ